Terminal Aerodrome Forecast
Issued by NWS

Home | Current Version | Previous Version | Text Only | Print | Product List | Glossary On
Versions: 1 2 3 4 5 6 7 8 9 10 11 12 13 14 15 16 17 18
000
FTUS45 KRIW 311700
TAFPNA
TAF
KPNA 311720Z 3118/0118 30006KT P6SM SCT100
     FM312300 30010G15KT P6SM VCSH SCT080
     FM010300 VRB06KT P6SM FEW090
      AMD LTD TO CLD VIS AND WIND=

USA.gov is the U.S. government's official web portal to all federal, state and local government web resources and services.